LOB4628 KBOS-KGSO
Flight info
| Callsign | LOB4628 |
|---|---|
| Flight time | 1h 38m |
| Altitude | 30000 |
| Route | PATSS7 PATSS NELIE Q75 GVE AIROW HENBY1 |
| Aircraft | B77L/H-SDE1E2E3FGHIJ2J3J4J5M1RWXY/LB1D1 |
Departure
| Time | 2026-04-16 21:26 |
|---|---|
| Airport | Boston Logan International Airport (KBOS) |
Arrival
| Time | 2026-04-16 23:05 |
|---|---|
| Airport | Piedmont Triad International Airport (KGSO) |
| Time | Latitude | Longitude | Altitude | Speed | Heading |
|---|---|---|---|---|---|
| 2026-04-16 20:55 | 42.35855 | -71.02087 | 30 ft | 0 kts | 210° |
| 2026-04-16 21:16 | 42.35867 | -71.02078 | 28 ft | 2 kts | 210° |
| 2026-04-16 21:16 | 42.35882 | -71.02067 | 28 ft | 2 kts | 195° |
| 2026-04-16 21:16 | 42.35897 | -71.02063 | 28 ft | 2 kts | 187° |
| 2026-04-16 21:16 | 42.35913 | -71.02061 | 29 ft | 2 kts | 180° |
| 2026-04-16 21:17 | 42.35929 | -71.02062 | 28 ft | 2 kts | 166° |
| 2026-04-16 21:17 | 42.35944 | -71.02070 | 28 ft | 2 kts | 139° |
| 2026-04-16 21:17 | 42.35955 | -71.02087 | 29 ft | 2 kts | 124° |
| 2026-04-16 21:17 | 42.35964 | -71.02105 | 29 ft | 2 kts | 120° |
| 2026-04-16 21:18 | 42.35966 | -71.02109 | 29 ft | 0 kts | 120° |
| 2026-04-16 21:21 | 42.35964 | -71.02103 | 29 ft | 3 kts | 120° |
| 2026-04-16 21:21 | 42.35949 | -71.02069 | 28 ft | 4 kts | 120° |
| 2026-04-16 21:21 | 42.35934 | -71.02034 | 30 ft | 4 kts | 120° |
| 2026-04-16 21:22 | 42.35919 | -71.01999 | 30 ft | 4 kts | 120° |
| 2026-04-16 21:22 | 42.35904 | -71.01963 | 30 ft | 4 kts | 120° |
| 2026-04-16 21:22 | 42.35889 | -71.01928 | 30 ft | 4 kts | 120° |
| 2026-04-16 21:22 | 42.35871 | -71.01889 | 30 ft | 5 kts | 120° |
| 2026-04-16 21:23 | 42.35855 | -71.01837 | 30 ft | 6 kts | 107° |
| 2026-04-16 21:23 | 42.35844 | -71.01774 | 30 ft | 7 kts | 102° |
| 2026-04-16 21:23 | 42.35834 | -71.01702 | 30 ft | 8 kts | 101° |
| 2026-04-16 21:23 | 42.35821 | -71.01626 | 30 ft | 8 kts | 102° |
| 2026-04-16 21:24 | 42.35806 | -71.01550 | 30 ft | 8 kts | 107° |
| 2026-04-16 21:24 | 42.35787 | -71.01476 | 30 ft | 8 kts | 109° |
| 2026-04-16 21:24 | 42.35768 | -71.01403 | 30 ft | 8 kts | 110° |
| 2026-04-16 21:24 | 42.35747 | -71.01332 | 30 ft | 6 kts | 118° |
| 2026-04-16 21:25 | 42.35735 | -71.01312 | 30 ft | 5 kts | 133° |
| 2026-04-16 21:25 | 42.35702 | -71.01299 | 30 ft | 5 kts | 181° |
| 2026-04-16 21:25 | 42.35661 | -71.01306 | 30 ft | 8 kts | 188° |
| 2026-04-16 21:25 | 42.35600 | -71.01265 | 30 ft | 13 kts | 115° |
| 2026-04-16 21:26 | 42.35609 | -71.01113 | 30 ft | 26 kts | 78° |
| 2026-04-16 21:26 | 42.35716 | -71.00506 | 30 ft | 111 kts | 76° |
| 2026-04-16 21:26 | 42.35960 | -70.99118 | 117 ft | 181 kts | 77° |
| 2026-04-16 21:26 | 42.36271 | -70.97411 | 931 ft | 187 kts | 78° |
| 2026-04-16 21:27 | 42.36597 | -70.95702 | 1924 ft | 192 kts | 81° |
| 2026-04-16 21:27 | 42.36920 | -70.93839 | 2311 ft | 214 kts | 81° |
| 2026-04-16 21:27 | 42.37261 | -70.91795 | 2735 ft | 229 kts | 81° |
| 2026-04-16 21:27 | 42.37606 | -70.89672 | 3398 ft | 233 kts | 81° |
| 2026-04-16 21:28 | 42.37954 | -70.87508 | 4023 ft | 239 kts | 80° |
| 2026-04-16 21:28 | 42.38305 | -70.85284 | 4587 ft | 245 kts | 78° |
| 2026-04-16 21:28 | 42.38674 | -70.82984 | 5120 ft | 253 kts | 78° |
| 2026-04-16 21:28 | 42.38955 | -70.80633 | 5710 ft | 255 kts | 93° |
| 2026-04-16 21:29 | 42.38619 | -70.78307 | 6279 ft | 253 kts | 117° |
| 2026-04-16 21:29 | 42.37796 | -70.76207 | 6825 ft | 254 kts | 120° |
| 2026-04-16 21:29 | 42.37211 | -70.73865 | 6996 ft | 278 kts | 108° |
| 2026-04-16 21:29 | 42.36390 | -70.71445 | 7191 ft | 290 kts | 137° |
| 2026-04-16 21:30 | 42.34713 | -70.69976 | 7688 ft | 285 kts | 172° |
| 2026-04-16 21:30 | 42.32816 | -70.69988 | 8328 ft | 274 kts | 201° |
| 2026-04-16 21:30 | 42.30951 | -70.70703 | 8966 ft | 280 kts | 199° |
| 2026-04-16 21:30 | 42.29027 | -70.71133 | 9731 ft | 286 kts | 194° |
| 2026-04-16 21:31 | 42.27130 | -70.71869 | 10312 ft | 279 kts | 219° |
| 2026-04-16 21:31 | 42.25799 | -70.73796 | 10536 ft | 291 kts | 248° |
| 2026-04-16 21:31 | 42.25037 | -70.76343 | 10675 ft | 307 kts | 244° |
| 2026-04-16 21:31 | 42.23678 | -70.78784 | 10851 ft | 335 kts | 231° |
| 2026-04-16 21:32 | 42.22116 | -70.81212 | 11208 ft | 346 kts | 237° |
| 2026-04-16 21:32 | 42.21111 | -70.84120 | 11678 ft | 351 kts | 259° |
| 2026-04-16 21:32 | 42.20690 | -70.87409 | 12268 ft | 356 kts | 261° |
| 2026-04-16 21:32 | 42.20219 | -70.90694 | 13219 ft | 355 kts | 259° |
| 2026-04-16 21:33 | 42.19725 | -70.93913 | 14121 ft | 356 kts | 259° |
| 2026-04-16 21:33 | 42.19235 | -70.97192 | 14828 ft | 359 kts | 259° |
| 2026-04-16 21:33 | 42.18771 | -71.00520 | 15526 ft | 363 kts | 260° |
| 2026-04-16 21:33 | 42.18314 | -71.03890 | 16274 ft | 366 kts | 260° |
| 2026-04-16 21:34 | 42.17854 | -71.07284 | 16976 ft | 370 kts | 260° |
| 2026-04-16 21:34 | 42.17387 | -71.10709 | 17678 ft | 374 kts | 260° |
| 2026-04-16 21:34 | 42.16912 | -71.14175 | 18336 ft | 377 kts | 260° |
| 2026-04-16 21:34 | 42.16431 | -71.17669 | 18938 ft | 380 kts | 260° |
| 2026-04-16 21:35 | 42.15946 | -71.21174 | 19576 ft | 382 kts | 260° |
| 2026-04-16 21:35 | 42.15455 | -71.24710 | 20210 ft | 385 kts | 259° |
| 2026-04-16 21:35 | 42.14959 | -71.28270 | 20827 ft | 388 kts | 260° |
| 2026-04-16 21:35 | 42.14458 | -71.31857 | 21438 ft | 391 kts | 260° |
| 2026-04-16 21:36 | 42.13953 | -71.35464 | 22023 ft | 393 kts | 259° |
| 2026-04-16 21:36 | 42.13442 | -71.39102 | 22601 ft | 396 kts | 259° |
| 2026-04-16 21:36 | 42.12927 | -71.42760 | 23178 ft | 400 kts | 259° |
| 2026-04-16 21:36 | 42.12407 | -71.46453 | 23694 ft | 403 kts | 259° |
| 2026-04-16 21:37 | 42.11881 | -71.50170 | 24168 ft | 406 kts | 259° |
| 2026-04-16 21:37 | 42.11350 | -71.53919 | 24610 ft | 409 kts | 259° |
| 2026-04-16 21:37 | 42.10813 | -71.57697 | 25102 ft | 412 kts | 259° |
| 2026-04-16 21:37 | 42.10457 | -71.60203 | 25471 ft | 412 kts | 259° |
| 2026-04-16 21:38 | 42.09732 | -71.65292 | 26151 ft | 415 kts | 259° |
| 2026-04-16 21:38 | 42.09184 | -71.69120 | 26594 ft | 419 kts | 259° |
| 2026-04-16 21:38 | 42.08817 | -71.71676 | 26887 ft | 421 kts | 259° |
| 2026-04-16 21:38 | 42.08252 | -71.75549 | 27342 ft | 423 kts | 258° |
| 2026-04-16 21:39 | 42.07676 | -71.79452 | 27789 ft | 426 kts | 258° |
| 2026-04-16 21:39 | 42.07093 | -71.83379 | 28215 ft | 429 kts | 258° |
| 2026-04-16 21:39 | 42.06506 | -71.87324 | 28633 ft | 432 kts | 258° |
| 2026-04-16 21:39 | 42.05914 | -71.91298 | 29063 ft | 434 kts | 258° |
| 2026-04-16 21:40 | 42.05319 | -71.95290 | 29525 ft | 435 kts | 258° |
| 2026-04-16 21:40 | 42.04724 | -71.99277 | 29890 ft | 437 kts | 258° |
| 2026-04-16 21:40 | 42.04124 | -72.03290 | 29817 ft | 437 kts | 258° |
| 2026-04-16 21:41 | 42.02931 | -72.11241 | 29864 ft | 431 kts | 258° |
| 2026-04-16 21:41 | 42.01737 | -72.19155 | 29840 ft | 432 kts | 258° |
| 2026-04-16 21:42 | 42.00534 | -72.27094 | 29838 ft | 433 kts | 258° |
| 2026-04-16 21:42 | 41.99319 | -72.35063 | 30051 ft | 440 kts | 258° |
| 2026-04-16 21:43 | 41.98101 | -72.43026 | 29995 ft | 433 kts | 258° |
| 2026-04-16 21:43 | 41.97481 | -72.47061 | 30144 ft | 437 kts | 258° |
| 2026-04-16 21:43 | 41.96863 | -72.51074 | 30166 ft | 440 kts | 258° |
| 2026-04-16 21:44 | 41.95638 | -72.59008 | 30123 ft | 433 kts | 258° |
| 2026-04-16 21:44 | 41.93857 | -72.66761 | 29942 ft | 434 kts | 245° |
| 2026-04-16 21:45 | 41.90680 | -72.73615 | 29837 ft | 439 kts | 234° |
| 2026-04-16 21:45 | 41.86426 | -72.79545 | 29824 ft | 441 kts | 229° |
| 2026-04-16 21:46 | 41.82084 | -72.85348 | 29822 ft | 440 kts | 229° |
| 2026-04-16 21:46 | 41.77772 | -72.91169 | 29831 ft | 440 kts | 229° |
| 2026-04-16 21:47 | 41.73476 | -72.97000 | 29827 ft | 440 kts | 229° |
| 2026-04-16 21:47 | 41.69167 | -73.02850 | 29860 ft | 442 kts | 229° |
| 2026-04-16 21:48 | 41.64841 | -73.08709 | 29865 ft | 444 kts | 229° |
| 2026-04-16 21:48 | 41.60496 | -73.14578 | 29892 ft | 445 kts | 229° |
| 2026-04-16 21:49 | 41.56134 | -73.20461 | 29879 ft | 446 kts | 229° |
| 2026-04-16 21:49 | 41.51769 | -73.26335 | 29880 ft | 445 kts | 228° |
| 2026-04-16 21:50 | 41.47414 | -73.32186 | 29879 ft | 444 kts | 228° |
| 2026-04-16 21:50 | 41.43106 | -73.38058 | 29861 ft | 442 kts | 229° |
| 2026-04-16 21:51 | 41.38819 | -73.43925 | 29833 ft | 442 kts | 229° |
| 2026-04-16 21:51 | 41.34530 | -73.49772 | 29843 ft | 442 kts | 229° |
| 2026-04-16 21:52 | 41.30221 | -73.55626 | 29850 ft | 443 kts | 229° |
| 2026-04-16 21:52 | 41.26151 | -73.61741 | 29856 ft | 441 kts | 234° |
| 2026-04-16 21:53 | 41.22357 | -73.68075 | 29832 ft | 441 kts | 233° |
| 2026-04-16 21:53 | 41.18511 | -73.74418 | 29854 ft | 441 kts | 233° |
| 2026-04-16 21:54 | 41.14660 | -73.80753 | 29847 ft | 440 kts | 233° |
| 2026-04-16 21:54 | 41.10859 | -73.87104 | 29853 ft | 440 kts | 233° |
| 2026-04-16 21:55 | 41.07072 | -73.93463 | 29837 ft | 439 kts | 233° |
| 2026-04-16 21:55 | 41.03280 | -73.99808 | 29820 ft | 439 kts | 233° |
| 2026-04-16 21:56 | 40.99483 | -74.06138 | 29828 ft | 439 kts | 233° |
| 2026-04-16 21:56 | 40.95681 | -74.12462 | 29823 ft | 439 kts | 233° |
| 2026-04-16 21:57 | 40.91878 | -74.18775 | 29826 ft | 438 kts | 233° |
| 2026-04-16 21:57 | 40.88078 | -74.25071 | 29803 ft | 438 kts | 233° |
| 2026-04-16 21:58 | 40.84269 | -74.31370 | 29818 ft | 439 kts | 233° |
| 2026-04-16 21:58 | 40.80447 | -74.37678 | 29842 ft | 441 kts | 233° |
| 2026-04-16 21:59 | 40.76611 | -74.44008 | 29833 ft | 442 kts | 233° |
| 2026-04-16 21:59 | 40.72784 | -74.50342 | 29818 ft | 442 kts | 233° |
| 2026-04-16 22:00 | 40.68951 | -74.56674 | 29810 ft | 441 kts | 233° |
| 2026-04-16 22:00 | 40.65119 | -74.62990 | 29816 ft | 441 kts | 233° |
| 2026-04-16 22:01 | 40.61307 | -74.69262 | 29815 ft | 442 kts | 233° |
| 2026-04-16 22:01 | 40.57410 | -74.75521 | 29813 ft | 443 kts | 230° |
| 2026-04-16 22:02 | 40.53215 | -74.81449 | 29808 ft | 443 kts | 229° |
| 2026-04-16 22:02 | 40.49014 | -74.87375 | 29817 ft | 443 kts | 229° |
| 2026-04-16 22:03 | 40.44823 | -74.93308 | 29831 ft | 443 kts | 229° |
| 2026-04-16 22:03 | 40.40620 | -74.99242 | 29835 ft | 444 kts | 229° |
| 2026-04-16 22:04 | 40.36382 | -75.05192 | 29814 ft | 444 kts | 229° |
| 2026-04-16 22:04 | 40.32192 | -75.11062 | 29840 ft | 444 kts | 229° |
| 2026-04-16 22:05 | 40.27965 | -75.16977 | 29842 ft | 444 kts | 229° |
| 2026-04-16 22:05 | 40.23743 | -75.22877 | 29861 ft | 444 kts | 229° |
| 2026-04-16 22:06 | 40.19508 | -75.28783 | 29867 ft | 445 kts | 229° |
| 2026-04-16 22:06 | 40.13158 | -75.37617 | 29858 ft | 445 kts | 229° |
| 2026-04-16 22:07 | 40.08876 | -75.43548 | 29878 ft | 445 kts | 229° |
| 2026-04-16 22:07 | 40.04651 | -75.49388 | 29876 ft | 445 kts | 229° |
| 2026-04-16 22:08 | 40.00403 | -75.55253 | 29874 ft | 445 kts | 229° |
| 2026-04-16 22:08 | 39.96148 | -75.61118 | 29864 ft | 445 kts | 229° |
| 2026-04-16 22:09 | 39.91900 | -75.66984 | 29867 ft | 445 kts | 230° |
| 2026-04-16 22:09 | 39.87972 | -75.73208 | 29868 ft | 445 kts | 233° |
| 2026-04-16 22:10 | 39.84073 | -75.79467 | 29894 ft | 445 kts | 232° |
| 2026-04-16 22:10 | 39.80163 | -75.85701 | 29869 ft | 444 kts | 232° |
| 2026-04-16 22:11 | 39.76262 | -75.91915 | 29856 ft | 443 kts | 232° |
| 2026-04-16 22:11 | 39.72378 | -75.98096 | 29857 ft | 441 kts | 232° |
| 2026-04-16 22:12 | 39.68494 | -76.04263 | 29854 ft | 440 kts | 232° |
| 2026-04-16 22:12 | 39.64614 | -76.10416 | 29853 ft | 441 kts | 232° |
| 2026-04-16 22:13 | 39.60730 | -76.16561 | 29856 ft | 441 kts | 232° |
| 2026-04-16 22:13 | 39.56789 | -76.22663 | 29853 ft | 441 kts | 231° |
| 2026-04-16 22:14 | 39.52814 | -76.28710 | 29849 ft | 441 kts | 232° |
| 2026-04-16 22:14 | 39.48848 | -76.34762 | 29856 ft | 441 kts | 232° |
| 2026-04-16 22:15 | 39.44776 | -76.40696 | 29830 ft | 442 kts | 227° |
| 2026-04-16 22:15 | 39.40442 | -76.46342 | 29850 ft | 442 kts | 227° |
| 2026-04-16 22:16 | 39.36104 | -76.51989 | 29883 ft | 443 kts | 228° |
| 2026-04-16 22:16 | 39.31774 | -76.57639 | 29871 ft | 443 kts | 228° |
| 2026-04-16 22:17 | 39.27442 | -76.63289 | 29832 ft | 442 kts | 228° |
| 2026-04-16 22:17 | 39.23114 | -76.68923 | 29822 ft | 442 kts | 228° |
| 2026-04-16 22:18 | 39.18786 | -76.74547 | 29836 ft | 442 kts | 228° |
| 2026-04-16 22:18 | 39.14446 | -76.80176 | 29865 ft | 443 kts | 228° |
| 2026-04-16 22:19 | 39.10095 | -76.85809 | 29860 ft | 443 kts | 228° |
| 2026-04-16 22:19 | 39.05747 | -76.91428 | 29822 ft | 442 kts | 228° |
| 2026-04-16 22:20 | 39.01407 | -76.97028 | 29833 ft | 441 kts | 228° |
| 2026-04-16 22:20 | 38.97071 | -77.02609 | 29836 ft | 441 kts | 228° |
| 2026-04-16 22:21 | 38.92732 | -77.08183 | 29835 ft | 441 kts | 228° |
| 2026-04-16 22:21 | 38.88389 | -77.13755 | 29831 ft | 441 kts | 228° |
| 2026-04-16 22:22 | 38.84045 | -77.19320 | 29840 ft | 442 kts | 228° |
| 2026-04-16 22:22 | 38.79685 | -77.24896 | 29827 ft | 443 kts | 228° |
| 2026-04-16 22:23 | 38.76056 | -77.29530 | 29814 ft | 442 kts | 228° |
| 2026-04-16 22:23 | 38.71685 | -77.35058 | 29848 ft | 442 kts | 227° |
| 2026-04-16 22:24 | 38.66389 | -77.41189 | 29828 ft | 441 kts | 225° |
| 2026-04-16 22:24 | 38.62544 | -77.45554 | 29861 ft | 441 kts | 225° |
| 2026-04-16 22:25 | 38.57970 | -77.50787 | 29851 ft | 442 kts | 225° |
| 2026-04-16 22:25 | 38.53430 | -77.56009 | 29851 ft | 442 kts | 225° |
| 2026-04-16 22:26 | 38.48830 | -77.61301 | 29853 ft | 443 kts | 225° |
| 2026-04-16 22:26 | 38.44257 | -77.66551 | 29861 ft | 441 kts | 225° |
| 2026-04-16 22:27 | 38.39686 | -77.71788 | 29852 ft | 442 kts | 225° |
| 2026-04-16 22:27 | 38.35149 | -77.76977 | 29856 ft | 441 kts | 225° |
| 2026-04-16 22:28 | 38.30580 | -77.82194 | 29870 ft | 441 kts | 225° |
| 2026-04-16 22:28 | 38.26008 | -77.87405 | 29838 ft | 441 kts | 225° |
| 2026-04-16 22:29 | 38.21423 | -77.92621 | 29859 ft | 443 kts | 225° |
| 2026-04-16 22:29 | 38.16829 | -77.97839 | 29884 ft | 443 kts | 225° |
| 2026-04-16 22:30 | 38.12231 | -78.03052 | 29872 ft | 443 kts | 225° |
| 2026-04-16 22:30 | 38.07638 | -78.08251 | 29866 ft | 442 kts | 225° |
| 2026-04-16 22:31 | 38.03053 | -78.13433 | 29858 ft | 441 kts | 225° |
| 2026-04-16 22:31 | 37.98772 | -78.18969 | 29874 ft | 439 kts | 231° |
| 2026-04-16 22:32 | 37.94734 | -78.24783 | 29882 ft | 440 kts | 231° |
| 2026-04-16 22:32 | 37.90660 | -78.30591 | 29877 ft | 442 kts | 231° |
| 2026-04-16 22:33 | 37.86567 | -78.36402 | 29881 ft | 442 kts | 231° |
| 2026-04-16 22:33 | 37.82467 | -78.42210 | 29882 ft | 442 kts | 231° |
| 2026-04-16 22:34 | 37.78370 | -78.48006 | 29890 ft | 442 kts | 231° |
| 2026-04-16 22:34 | 37.74274 | -78.53790 | 29892 ft | 441 kts | 231° |
| 2026-04-16 22:35 | 37.70182 | -78.59559 | 29897 ft | 441 kts | 231° |
| 2026-04-16 22:35 | 37.66089 | -78.65318 | 29895 ft | 441 kts | 231° |
| 2026-04-16 22:36 | 37.61994 | -78.71070 | 29917 ft | 440 kts | 231° |
| 2026-04-16 22:36 | 37.57902 | -78.76808 | 29905 ft | 440 kts | 231° |
| 2026-04-16 22:37 | 37.53811 | -78.82534 | 29914 ft | 439 kts | 231° |
| 2026-04-16 22:37 | 37.49731 | -78.88234 | 29926 ft | 438 kts | 231° |
| 2026-04-16 22:38 | 37.45648 | -78.93931 | 29928 ft | 438 kts | 231° |
| 2026-04-16 22:38 | 37.41584 | -78.99590 | 29925 ft | 439 kts | 231° |
| 2026-04-16 22:39 | 37.37456 | -79.05328 | 29940 ft | 440 kts | 230° |
| 2026-04-16 22:39 | 37.33354 | -79.11020 | 29951 ft | 439 kts | 230° |
| 2026-04-16 22:40 | 37.29325 | -79.16598 | 29538 ft | 421 kts | 230° |
| 2026-04-16 22:40 | 37.27389 | -79.19277 | 29369 ft | 408 kts | 230° |
| 2026-04-16 22:40 | 37.25515 | -79.21864 | 29246 ft | 393 kts | 230° |
| 2026-04-16 22:41 | 37.23721 | -79.24377 | 29098 ft | 380 kts | 232° |
| 2026-04-16 22:41 | 37.22039 | -79.26888 | 28799 ft | 371 kts | 233° |
| 2026-04-16 22:41 | 37.20436 | -79.29351 | 28342 ft | 368 kts | 233° |
| 2026-04-16 22:41 | 37.18804 | -79.31875 | 27783 ft | 367 kts | 233° |
| 2026-04-16 22:42 | 37.17195 | -79.34357 | 27234 ft | 367 kts | 233° |
| 2026-04-16 22:42 | 37.15606 | -79.36795 | 26753 ft | 365 kts | 232° |
| 2026-04-16 22:42 | 37.14002 | -79.39245 | 26296 ft | 363 kts | 232° |
| 2026-04-16 22:42 | 37.12402 | -79.41682 | 25858 ft | 361 kts | 232° |
| 2026-04-16 22:43 | 37.10810 | -79.44098 | 25468 ft | 358 kts | 232° |
| 2026-04-16 22:43 | 37.09233 | -79.46487 | 25102 ft | 354 kts | 232° |
| 2026-04-16 22:43 | 37.07668 | -79.48856 | 24636 ft | 353 kts | 232° |
| 2026-04-16 22:43 | 37.06103 | -79.51225 | 24188 ft | 352 kts | 231° |
| 2026-04-16 22:44 | 37.04542 | -79.53583 | 23761 ft | 351 kts | 231° |
| 2026-04-16 22:44 | 37.02985 | -79.55938 | 23274 ft | 351 kts | 231° |
| 2026-04-16 22:44 | 37.01434 | -79.58279 | 22850 ft | 348 kts | 231° |
| 2026-04-16 22:44 | 36.99893 | -79.60602 | 22400 ft | 346 kts | 231° |
| 2026-04-16 22:45 | 36.98361 | -79.62912 | 21966 ft | 344 kts | 231° |
| 2026-04-16 22:45 | 36.96835 | -79.65209 | 21548 ft | 342 kts | 231° |
| 2026-04-16 22:45 | 36.95325 | -79.67481 | 21179 ft | 339 kts | 231° |
| 2026-04-16 22:45 | 36.93821 | -79.69745 | 20757 ft | 337 kts | 231° |
| 2026-04-16 22:46 | 36.92325 | -79.71993 | 20353 ft | 336 kts | 231° |
| 2026-04-16 22:46 | 36.90838 | -79.74226 | 19990 ft | 333 kts | 231° |
| 2026-04-16 22:46 | 36.89354 | -79.76453 | 19532 ft | 333 kts | 231° |
| 2026-04-16 22:46 | 36.87880 | -79.78665 | 19159 ft | 331 kts | 231° |
| 2026-04-16 22:47 | 36.86413 | -79.80866 | 18789 ft | 329 kts | 231° |
| 2026-04-16 22:47 | 36.84959 | -79.83044 | 18466 ft | 325 kts | 231° |
| 2026-04-16 22:47 | 36.83512 | -79.85211 | 18051 ft | 324 kts | 231° |
| 2026-04-16 22:47 | 36.82071 | -79.87369 | 17590 ft | 323 kts | 231° |
| 2026-04-16 22:48 | 36.80634 | -79.89518 | 17167 ft | 322 kts | 231° |
| 2026-04-16 22:48 | 36.79203 | -79.91657 | 16702 ft | 321 kts | 232° |
| 2026-04-16 22:48 | 36.77769 | -79.93799 | 16238 ft | 321 kts | 232° |
| 2026-04-16 22:48 | 36.76339 | -79.95933 | 15824 ft | 320 kts | 232° |
| 2026-04-16 22:49 | 36.74916 | -79.98055 | 15418 ft | 319 kts | 232° |
| 2026-04-16 22:49 | 36.73349 | -79.99984 | 14876 ft | 320 kts | 217° |
| 2026-04-16 22:49 | 36.71277 | -80.01101 | 14349 ft | 331 kts | 197° |
| 2026-04-16 22:49 | 36.68979 | -80.01434 | 13941 ft | 336 kts | 182° |
| 2026-04-16 22:50 | 36.66657 | -80.00941 | 13478 ft | 341 kts | 171° |
| 2026-04-16 22:50 | 36.64365 | -80.00174 | 13093 ft | 340 kts | 169° |
| 2026-04-16 22:50 | 36.62097 | -79.99384 | 12687 ft | 338 kts | 169° |
| 2026-04-16 22:50 | 36.59842 | -79.98603 | 12312 ft | 335 kts | 169° |
| 2026-04-16 22:51 | 36.57604 | -79.97840 | 11931 ft | 332 kts | 169° |
| 2026-04-16 22:51 | 36.55378 | -79.97093 | 11479 ft | 331 kts | 170° |
| 2026-04-16 22:51 | 36.53145 | -79.96352 | 11032 ft | 331 kts | 169° |
| 2026-04-16 22:51 | 36.50924 | -79.95621 | 10670 ft | 329 kts | 169° |
| 2026-04-16 22:52 | 36.48718 | -79.94899 | 10290 ft | 327 kts | 169° |
| 2026-04-16 22:52 | 36.46518 | -79.94180 | 9911 ft | 326 kts | 169° |
| 2026-04-16 22:52 | 36.44337 | -79.93470 | 9527 ft | 323 kts | 169° |
| 2026-04-16 22:52 | 36.42174 | -79.92737 | 9103 ft | 319 kts | 165° |
| 2026-04-16 22:53 | 36.40207 | -79.91413 | 8539 ft | 327 kts | 147° |
| 2026-04-16 22:53 | 36.38441 | -79.89628 | 8123 ft | 327 kts | 142° |
| 2026-04-16 22:53 | 36.36746 | -79.87777 | 7755 ft | 323 kts | 141° |
| 2026-04-16 22:53 | 36.35076 | -79.85936 | 7411 ft | 319 kts | 141° |
| 2026-04-16 22:54 | 36.33645 | -79.83860 | 6902 ft | 321 kts | 120° |
| 2026-04-16 22:54 | 36.32975 | -79.81215 | 6452 ft | 325 kts | 95° |
| 2026-04-16 22:54 | 36.33222 | -79.78453 | 6077 ft | 323 kts | 71° |
| 2026-04-16 22:54 | 36.34310 | -79.76056 | 5667 ft | 319 kts | 49° |
| 2026-04-16 22:55 | 36.35834 | -79.74058 | 5230 ft | 318 kts | 42° |
| 2026-04-16 22:55 | 36.37434 | -79.72164 | 5008 ft | 320 kts | 42° |
| 2026-04-16 22:55 | 36.38981 | -79.70204 | 4958 ft | 317 kts | 54° |
| 2026-04-16 22:55 | 36.39898 | -79.67732 | 4940 ft | 320 kts | 79° |
| 2026-04-16 22:56 | 36.39945 | -79.64981 | 4814 ft | 320 kts | 104° |
| 2026-04-16 22:56 | 36.39112 | -79.62475 | 4708 ft | 308 kts | 129° |
| 2026-04-16 22:56 | 36.37662 | -79.60762 | 4507 ft | 274 kts | 156° |
| 2026-04-16 22:56 | 36.35943 | -79.60123 | 4323 ft | 251 kts | 184° |
| 2026-04-16 22:57 | 36.34225 | -79.60397 | 4259 ft | 249 kts | 196° |
| 2026-04-16 22:57 | 36.32590 | -79.61035 | 4213 ft | 246 kts | 210° |
| 2026-04-16 22:57 | 36.31207 | -79.62254 | 4108 ft | 240 kts | 227° |
| 2026-04-16 22:57 | 36.30311 | -79.63920 | 3955 ft | 227 kts | 245° |
| 2026-04-16 22:58 | 36.29690 | -79.65696 | 3816 ft | 219 kts | 247° |
| 2026-04-16 22:58 | 36.29146 | -79.67413 | 3750 ft | 209 kts | 248° |
| 2026-04-16 22:58 | 36.28625 | -79.69047 | 3577 ft | 198 kts | 248° |
| 2026-04-16 22:58 | 36.28126 | -79.70651 | 3451 ft | 201 kts | 247° |
| 2026-04-16 22:59 | 36.27596 | -79.72242 | 3327 ft | 195 kts | 243° |
| 2026-04-16 22:59 | 36.26817 | -79.73576 | 3265 ft | 197 kts | 230° |
| 2026-04-16 22:59 | 36.26168 | -79.75064 | 3101 ft | 195 kts | 249° |
| 2026-04-16 22:59 | 36.25488 | -79.76455 | 3050 ft | 186 kts | 221° |
| 2026-04-16 23:00 | 36.24456 | -79.77418 | 3010 ft | 190 kts | 222° |
| 2026-04-16 23:00 | 36.23506 | -79.78526 | 2984 ft | 181 kts | 226° |
| 2026-04-16 23:00 | 36.22643 | -79.79621 | 3008 ft | 182 kts | 227° |
| 2026-04-16 23:00 | 36.21761 | -79.80751 | 3004 ft | 182 kts | 227° |
| 2026-04-16 23:01 | 36.20909 | -79.81841 | 2984 ft | 170 kts | 227° |
| 2026-04-16 23:01 | 36.20129 | -79.82844 | 2981 ft | 153 kts | 228° |
| 2026-04-16 23:01 | 36.19412 | -79.83762 | 2985 ft | 149 kts | 228° |
| 2026-04-16 23:01 | 36.18681 | -79.84701 | 2778 ft | 151 kts | 227° |
| 2026-04-16 23:02 | 36.17965 | -79.85619 | 2594 ft | 147 kts | 228° |
| 2026-04-16 23:02 | 36.17254 | -79.86530 | 2417 ft | 148 kts | 228° |
| 2026-04-16 23:02 | 36.16537 | -79.87449 | 2204 ft | 149 kts | 227° |
| 2026-04-16 23:02 | 36.15827 | -79.88361 | 2026 ft | 146 kts | 227° |
| 2026-04-16 23:03 | 36.15096 | -79.89297 | 1840 ft | 158 kts | 228° |
| 2026-04-16 23:03 | 36.14336 | -79.90274 | 1640 ft | 155 kts | 225° |
| 2026-04-16 23:03 | 36.13611 | -79.91197 | 1380 ft | 152 kts | 229° |
| 2026-04-16 23:03 | 36.12908 | -79.92115 | 1232 ft | 143 kts | 225° |
| 2026-04-16 23:04 | 36.12218 | -79.92979 | 1103 ft | 143 kts | 224° |
| 2026-04-16 23:04 | 36.11486 | -79.93927 | 935 ft | 152 kts | 225° |
| 2026-04-16 23:04 | 36.10790 | -79.94797 | 931 ft | 126 kts | 227° |
| 2026-04-16 23:04 | 36.10314 | -79.95409 | 945 ft | 72 kts | 225° |
| 2026-04-16 23:05 | 36.10091 | -79.95689 | 948 ft | 19 kts | 225° |
| 2026-04-16 23:05 | 36.10040 | -79.95752 | 949 ft | 18 kts | 225° |
| 2026-04-16 23:05 | 36.09933 | -79.95858 | 952 ft | 19 kts | 181° |
| 2026-04-16 23:05 | 36.09900 | -79.95753 | 951 ft | 15 kts | 56° |
| 2026-04-16 23:06 | 36.09907 | -79.95741 | 951 ft | 2 kts | 53° |
| 2026-04-16 23:06 | 36.09958 | -79.95673 | 951 ft | 22 kts | 46° |
| 2026-04-16 23:06 | 36.10101 | -79.95491 | 949 ft | 32 kts | 45° |
| 2026-04-16 23:06 | 36.10258 | -79.95293 | 946 ft | 32 kts | 46° |
| 2026-04-16 23:07 | 36.10415 | -79.95088 | 940 ft | 33 kts | 46° |
| 2026-04-16 23:07 | 36.10569 | -79.94887 | 935 ft | 32 kts | 45° |
| 2026-04-16 23:07 | 36.10716 | -79.94707 | 933 ft | 27 kts | 45° |
| 2026-04-16 23:07 | 36.10847 | -79.94537 | 929 ft | 27 kts | 46° |
| 2026-04-16 23:08 | 36.10977 | -79.94373 | 924 ft | 27 kts | 45° |
| 2026-04-16 23:08 | 36.11109 | -79.94206 | 917 ft | 28 kts | 45° |
| 2026-04-16 23:08 | 36.11245 | -79.94033 | 911 ft | 28 kts | 46° |
| 2026-04-16 23:08 | 36.11377 | -79.93863 | 907 ft | 25 kts | 46° |
| 2026-04-16 23:09 | 36.11456 | -79.93762 | 905 ft | 23 kts | 45° |
| 2026-04-16 23:09 | 36.11476 | -79.93653 | 903 ft | 13 kts | 129° |
| 2026-04-16 23:09 | 36.11409 | -79.93575 | 905 ft | 13 kts | 135° |
| 2026-04-16 23:09 | 36.11344 | -79.93494 | 908 ft | 13 kts | 135° |
| 2026-04-16 23:10 | 36.11276 | -79.93417 | 911 ft | 13 kts | 138° |
| 2026-04-16 23:10 | 36.11210 | -79.93338 | 915 ft | 13 kts | 135° |
| 2026-04-16 23:10 | 36.11143 | -79.93260 | 925 ft | 13 kts | 137° |
| 2026-04-16 23:10 | 36.11075 | -79.93183 | 927 ft | 13 kts | 138° |
| 2026-04-16 23:11 | 36.11008 | -79.93104 | 933 ft | 13 kts | 134° |
| 2026-04-16 23:11 | 36.10945 | -79.93022 | 938 ft | 13 kts | 134° |
| 2026-04-16 23:11 | 36.10879 | -79.92942 | 941 ft | 13 kts | 137° |
| 2026-04-16 23:11 | 36.10811 | -79.92866 | 942 ft | 12 kts | 138° |
| 2026-04-16 23:12 | 36.10799 | -79.92772 | 944 ft | 12 kts | 58° |
| 2026-04-16 23:12 | 36.10858 | -79.92697 | 946 ft | 12 kts | 48° |
| 2026-04-16 23:12 | 36.10915 | -79.92620 | 946 ft | 12 kts | 46° |
| 2026-04-16 23:12 | 36.10974 | -79.92552 | 948 ft | 9 kts | 39° |
| 2026-04-16 23:13 | 36.11036 | -79.92559 | 947 ft | 10 kts | 330° |
| 2026-04-16 23:13 | 36.11053 | -79.92579 | 946 ft | 0 kts | 316° |